Time;durP1;ratioP1;P1;durP2;ratioP2;P2;SDS_P1;SDS_P2;PMS_P1;PMS_P2;Temp;Humidity;BMP_temperature;BMP_pressure;BME280_temperature;BME280_humidity;BME280_pressure;Samples;Min_cycle;Max_cycle;Signal;HPM_P1;HPM_P2
2021/08/26 00:00:17;;;;;;;4.27;2.47;;;;;;;14.34;89.84;100128.20;1756047;81;21476;-75
2021/08/26 00:05:50;;;;;;;4.50;2.57;;;;;;;14.42;89.75;100120.05;1756791;81;21479;-75
2021/08/26 00:08:19;;;;;;;3.43;2.53;;;;;;;14.50;89.02;100136.83;1747888;81;21444;-76
2021/08/26 00:10:46;;;;;;;3.80;2.50;;;;;;;14.50;89.02;100136.83;1752510;80;21731;-74
2021/08/26 00:13:16;;;;;;;3.87;2.70;;;;;;;14.46;88.34;100134.48;1754204;81;21761;-74
2021/08/26 00:15:45;;;;;;;3.50;2.43;;;;;;;14.46;88.34;100134.48;1757252;81;21551;-74
2021/08/26 00:18:12;;;;;;;4.60;2.43;;;;;;;14.39;88.43;100132.72;1746838;79;21529;-75
2021/08/26 00:20:39;;;;;;;3.50;2.50;;;;;;;14.38;88.45;100137.81;1754501;81;21912;-75
2021/08/26 00:23:06;;;;;;;3.30;2.47;;;;;;;14.40;88.43;100146.39;1755409;79;22393;-75
2021/08/26 00:25:35;;;;;;;3.13;2.30;;;;;;;14.44;88.66;100132.63;1742816;82;21502;-75
2021/08/26 00:28:02;;;;;;;3.13;2.27;;;;;;;14.44;87.78;100138.00;1751859;80;21600;-74
2021/08/26 00:30:28;;;;;;;3.17;2.00;;;;;;;14.44;87.78;100138.00;1747607;81;21784;-73
2021/08/26 00:32:55;;;;;;;3.67;2.17;;;;;;;14.43;88.09;100139.89;1747806;81;22107;-73
2021/08/26 00:35:22;;;;;;;3.17;2.20;;;;;;;14.40;88.01;100136.99;1753439;79;21496;-73
2021/08/26 00:37:49;;;;;;;3.30;2.17;;;;;;;14.38;87.99;100134.61;1760392;81;21506;-73
2021/08/26 00:40:15;;;;;;;3.20;2.20;;;;;;;14.38;87.99;100134.61;1760664;81;21845;-74
2021/08/26 00:42:44;;;;;;;3.40;2.30;;;;;;;14.38;87.77;100140.50;1761928;81;21749;-75
2021/08/26 00:45:11;;;;;;;3.00;2.20;;;;;;;14.39;87.79;100143.46;1748525;81;22340;-75
2021/08/26 00:47:39;;;;;;;3.20;2.17;;;;;;;14.39;87.82;100142.13;1756766;81;21698;-75
2021/08/26 00:50:06;;;;;;;4.10;2.60;;;;;;;14.43;87.75;100148.50;1756456;81;21748;-76
2021/08/26 00:52:35;;;;;;;3.37;2.27;;;;;;;14.43;87.75;100148.50;1742687;81;21599;-75
2021/08/26 00:55:03;;;;;;;3.13;2.07;;;;;;;14.43;87.98;100147.95;1700816;81;21766;-73
2021/08/26 00:57:30;;;;;;;4.03;2.50;;;;;;;14.45;87.78;100149.02;1749831;81;21743;-76
2021/08/26 00:59:59;;;;;;;4.07;2.70;;;;;;;14.49;87.95;100133.90;1755209;79;22042;-75
2021/08/26 01:03:06;;;;;;;4.13;2.50;;;;;;;14.49;87.95;100133.90;1746986;79;21615;-73
2021/08/26 01:05:49;;;;;;;4.13;2.70;;;;;;;14.47;87.44;100138.20;1746727;81;21714;-73
2021/08/26 01:08:40;;;;;;;3.57;2.73;;;;;;;14.47;87.44;100138.20;1750848;81;21568;-75
2021/08/26 01:11:07;;;;;;;4.57;2.33;;;;;;;14.51;87.85;100135.76;1756326;81;21968;-74
2021/08/26 01:13:38;;;;;;;3.67;2.80;;;;;;;14.57;87.77;100135.93;1756340;81;21748;-74
2021/08/26 01:16:10;;;;;;;4.47;2.60;;;;;;;14.57;87.77;100135.93;1748365;81;21759;-74
2021/08/26 01:18:46;;;;;;;4.30;2.93;;;;;;;14.61;87.55;100147.72;1753717;79;21730;-74
2021/08/26 01:21:17;;;;;;;3.30;2.33;;;;;;;14.59;87.55;100159.30;1752893;79;21744;-74
2021/08/26 01:23:47;;;;;;;3.30;2.53;;;;;;;14.61;87.77;100151.75;1758375;81;21569;-74
2021/08/26 01:26:27;;;;;;;4.97;2.70;;;;;;;14.72;87.65;100141.06;1766555;81;21676;-74
2021/08/26 01:28:54;;;;;;;3.40;2.47;;;;;;;14.72;87.65;100141.06;1758741;81;21790;-73
2021/08/26 01:31:21;;;;;;;2.90;2.10;;;;;;;14.69;87.38;100130.91;1752791;81;21743;-73
2021/08/26 01:33:53;;;;;;;4.10;2.50;;;;;;;14.65;87.09;100127.77;1741900;81;21828;-73
2021/08/26 01:36:23;;;;;;;3.37;2.20;;;;;;;14.60;87.24;100126.49;1756520;81;21726;-74
2021/08/26 01:38:51;;;;;;;5.03;2.40;;;;;;;14.59;87.23;100125.70;1760428;81;21756;-74
2021/08/26 01:41:19;;;;;;;3.67;2.40;;;;;;;14.57;87.19;100121.16;1753362;79;21733;-74
2021/08/26 01:43:50;;;;;;;3.40;2.23;;;;;;;14.60;87.25;100119.77;1741095;81;21766;-74
2021/08/26 01:46:17;;;;;;;3.13;2.33;;;;;;;14.62;87.39;100119.73;1743576;81;22042;-74
2021/08/26 01:48:47;;;;;;;2.93;2.30;;;;;;;14.63;87.08;100125.91;1754317;81;21164;-75
2021/08/26 01:51:14;;;;;;;2.70;2.07;;;;;;;14.63;86.98;100124.56;1731561;81;21764;-74
2021/08/26 01:53:41;;;;;;;4.00;2.10;;;;;;;14.67;86.92;100125.01;1743047;81;22273;-74
2021/08/26 01:56:08;;;;;;;4.10;2.40;;;;;;;14.70;86.63;100131.70;1745663;81;21709;-74
2021/08/26 01:58:35;;;;;;;3.40;2.33;;;;;;;14.71;86.55;100127.94;1757018;79;21770;-75
2021/08/26 02:01:02;;;;;;;3.50;2.10;;;;;;;14.70;86.38;100127.11;1752787;81;21758;-75
2021/08/26 02:03:29;;;;;;;3.10;2.13;;;;;;;14.69;86.41;100125.53;1754472;81;22755;-74
2021/08/26 02:05:55;;;;;;;5.13;2.47;;;;;;;14.67;86.08;100112.91;1752333;81;22305;-74
2021/08/26 02:08:22;;;;;;;3.47;2.30;;;;;;;14.63;86.16;100118.64;1762915;79;21752;-74
2021/08/26 02:10:49;;;;;;;3.23;2.20;;;;;;;14.62;86.18;100117.05;1757561;81;21718;-74
2021/08/26 02:13:16;;;;;;;4.83;2.43;;;;;;;14.68;86.31;100121.25;1751433;81;22968;-74
2021/08/26 02:15:43;;;;;;;3.20;2.10;;;;;;;14.70;86.22;100117.70;1744872;81;21686;-74
2021/08/26 02:18:10;;;;;;;3.17;2.17;;;;;;;14.72;86.23;100119.56;1765910;81;22306;-74
2021/08/26 02:20:36;;;;;;;3.30;2.20;;;;;;;14.78;86.17;100118.39;1757424;79;21781;-74
2021/08/26 02:23:03;;;;;;;4.47;2.50;;;;;;;14.80;86.16;100116.73;1760454;79;21743;-73
2021/08/26 02:25:30;;;;;;;5.27;2.70;;;;;;;14.84;86.35;100118.28;1749192;81;21687;-74
2021/08/26 02:27:57;;;;;;;3.10;2.30;;;;;;;14.89;86.54;100114.96;1744277;81;21706;-74
2021/08/26 02:30:24;;;;;;;3.63;2.43;;;;;;;14.96;86.60;100109.98;1759693;81;21790;-72
2021/08/26 02:32:50;;;;;;;3.60;2.60;;;;;;;15.01;86.63;100100.50;1759919;81;21910;-73
2021/08/26 02:35:17;;;;;;;3.73;2.50;;;;;;;15.06;86.59;100096.91;1762641;81;21820;-73
2021/08/26 02:37:44;;;;;;;3.43;2.37;;;;;;;15.08;86.48;100089.90;1751972;81;21713;-73
2021/08/26 02:40:10;;;;;;;3.57;2.27;;;;;;;15.09;86.32;100088.80;1758207;81;21786;-74
2021/08/26 02:42:37;;;;;;;4.10;2.57;;;;;;;15.04;86.23;100080.81;1753593;81;22237;-74
2021/08/26 02:45:05;;;;;;;3.43;2.50;;;;;;;15.01;86.10;100083.56;1736473;79;21752;-73
2021/08/26 02:47:32;;;;;;;3.70;2.47;;;;;;;14.99;86.08;100082.50;1759679;81;21818;-74
2021/08/26 02:49:58;;;;;;;3.27;2.30;;;;;;;15.01;86.18;100084.36;1763785;81;21770;-73
2021/08/26 02:52:25;;;;;;;3.10;2.27;;;;;;;15.05;86.37;100081.08;1754620;81;21768;-74
2021/08/26 02:54:52;;;;;;;3.43;2.30;;;;;;;15.09;86.46;100088.23;1746370;81;22285;-74
2021/08/26 02:57:18;;;;;;;3.70;2.40;;;;;;;15.14;86.54;100100.81;1747535;81;21702;-74
2021/08/26 02:59:44;;;;;;;3.60;2.50;;;;;;;15.18;86.68;100100.45;1762145;81;21727;-75
2021/08/26 03:02:11;;;;;;;3.97;2.30;;;;;;;15.18;86.65;100098.56;1756830;79;21706;-74
2021/08/26 03:04:37;;;;;;;5.20;2.70;;;;;;;15.20;86.64;100095.56;1750574;79;21705;-74
2021/08/26 03:07:06;;;;;;;4.60;2.33;;;;;;;15.20;86.53;100083.45;1758258;81;22953;-73
2021/08/26 03:09:32;;;;;;;3.97;2.60;;;;;;;15.20;86.40;100083.45;1751284;81;21738;-74
2021/08/26 03:11:59;;;;;;;3.47;2.30;;;;;;;15.20;86.20;100072.69;1757180;81;22333;-74
2021/08/26 03:14:26;;;;;;;2.93;2.27;;;;;;;15.19;86.29;100060.34;1755629;81;21766;-74
2021/08/26 03:16:54;;;;;;;4.37;2.50;;;;;;;15.18;86.28;100070.31;1755841;79;21796;-75
2021/08/26 03:19:20;;;;;;;3.37;2.30;;;;;;;15.17;86.37;100076.80;1758334;81;21731;-74
2021/08/26 03:21:47;;;;;;;3.40;2.37;;;;;;;15.20;86.49;100084.80;1748361;79;21820;-73
2021/08/26 03:24:13;;;;;;;4.10;2.40;;;;;;;15.29;86.61;100086.25;1760005;79;21695;-75
2021/08/26 03:26:40;;;;;;;3.30;2.43;;;;;;;15.29;86.61;100086.25;1743678;81;21089;-75
2021/08/26 03:29:07;;;;;;;3.77;2.70;;;;;;;15.32;86.47;100085.66;1741299;81;21729;-75
2021/08/26 03:31:35;;;;;;;3.80;2.60;;;;;;;15.34;86.45;100084.27;1751132;79;21828;-73
2021/08/26 03:34:01;;;;;;;4.03;2.70;;;;;;;15.32;86.59;100078.38;1747027;81;21295;-74
2021/08/26 03:36:28;;;;;;;3.67;2.70;;;;;;;15.32;86.33;100080.27;1750950;81;22252;-76
2021/08/26 03:38:55;;;;;;;4.10;2.87;;;;;;;15.28;86.11;100080.63;1737773;81;21780;-74
2021/08/26 03:41:22;;;;;;;3.63;2.53;;;;;;;15.19;86.57;100077.83;1748037;81;21078;-74
2021/08/26 03:43:50;;;;;;;4.53;2.50;;;;;;;15.19;86.57;100077.83;1757085;79;21069;-75
2021/08/26 03:46:16;;;;;;;3.93;2.60;;;;;;;15.19;86.33;100071.90;1758898;81;21701;-73
2021/08/26 03:48:45;;;;;;;4.13;2.60;;;;;;;15.19;86.33;100071.90;1742494;81;21124;-75
2021/08/26 03:51:11;;;;;;;3.97;2.67;;;;;;;15.21;86.57;100078.34;1744164;81;21483;-74
2021/08/26 03:53:39;;;;;;;6.83;2.63;;;;;;;15.21;86.57;100078.34;1758067;80;21554;-74
2021/08/26 03:56:06;;;;;;;5.13;2.70;;;;;;;15.19;86.70;100073.25;1765249;81;21668;-75
2021/08/26 03:58:34;;;;;;;4.00;2.53;;;;;;;15.19;86.70;100073.25;1750242;81;21108;-75
2021/08/26 04:01:05;;;;;;;4.07;2.60;;;;;;;15.23;86.57;100075.61;1745543;81;21739;-75
2021/08/26 04:03:32;;;;;;;3.65;2.47;;;;;;;15.26;86.48;100070.16;1760413;81;21679;-75
2021/08/26 04:05:59;;;;;;;4.43;2.70;;;;;;;15.27;86.41;100075.80;1751454;81;21794;-75
2021/08/26 04:08:27;;;;;;;3.53;2.63;;;;;;;15.21;86.59;100072.96;1753156;81;22257;-74
2021/08/26 04:10:54;;;;;;;4.30;2.70;;;;;;;15.21;86.59;100072.96;1751696;81;21018;-74
2021/08/26 04:13:20;;;;;;;3.17;2.30;;;;;;;15.11;86.97;100072.61;1751079;81;21701;-73
2021/08/26 04:15:49;;;;;;;3.60;2.70;;;;;;;15.11;86.97;100072.61;1746210;81;21575;-73
2021/08/26 04:18:16;;;;;;;5.07;2.73;;;;;;;15.17;86.89;100076.80;1759687;81;21691;-73
2021/08/26 04:20:43;;;;;;;4.70;2.80;;;;;;;15.22;87.09;100074.00;1756300;81;22775;-73
2021/08/26 04:23:09;;;;;;;3.90;2.63;;;;;;;15.32;87.21;100069.52;1759171;81;21789;-72
2021/08/26 04:25:38;;;;;;;4.07;2.80;;;;;;;15.39;87.50;100069.90;1756327;79;21046;-73
2021/08/26 04:28:06;;;;;;;3.70;2.83;;;;;;;15.46;87.21;100064.90;1744342;81;21707;-73
2021/08/26 04:30:33;;;;;;;4.80;2.67;;;;;;;15.52;87.21;100071.77;1746867;81;21105;-74
2021/08/26 04:33:01;;;;;;;4.63;2.90;;;;;;;15.59;87.14;100070.81;1747632;81;21045;-74
2021/08/26 04:35:30;;;;;;;4.80;3.00;;;;;;;15.67;87.19;100073.39;1753155;81;21126;-74
2021/08/26 04:37:56;;;;;;;3.70;2.40;;;;;;;15.69;86.80;100066.61;1766374;81;21327;-72
2021/08/26 04:40:23;;;;;;;3.73;2.63;;;;;;;15.73;86.53;100070.84;1762253;81;21128;-72
2021/08/26 04:42:49;;;;;;;5.47;2.87;;;;;;;15.70;86.39;100074.92;1762891;81;21200;-72
2021/08/26 04:45:17;;;;;;;4.23;2.80;;;;;;;15.71;86.24;100077.06;1751639;81;21033;-73
2021/08/26 04:47:43;;;;;;;3.57;2.80;;;;;;;15.73;86.14;100075.40;1750321;79;21126;-74
2021/08/26 04:50:10;;;;;;;4.50;2.90;;;;;;;15.79;85.89;100079.58;1751205;81;21076;-74
2021/08/26 04:52:37;;;;;;;3.57;2.40;;;;;;;15.79;85.54;100076.89;1750068;79;21135;-72
2021/08/26 04:55:05;;;;;;;5.53;2.80;;;;;;;15.79;85.44;100078.23;1759133;81;21217;-72
2021/08/26 04:57:32;;;;;;;3.73;2.53;;;;;;;15.79;85.30;100079.02;1745692;81;21493;-73
2021/08/26 04:59:58;;;;;;;3.80;2.50;;;;;;;15.80;85.30;100081.98;1754782;81;21077;-73
2021/08/26 05:02:25;;;;;;;3.70;2.87;;;;;;;15.82;85.32;100083.02;1748929;81;21097;-72
2021/08/26 05:04:52;;;;;;;5.23;2.90;;;;;;;15.82;85.17;100080.32;1756898;81;21103;-72
2021/08/26 05:07:19;;;;;;;3.37;2.40;;;;;;;15.80;85.28;100080.64;1753441;79;21124;-71
2021/08/26 05:09:45;;;;;;;3.70;2.63;;;;;;;15.80;85.33;100079.29;1754839;81;21077;-72
2021/08/26 05:12:12;;;;;;;3.30;2.30;;;;;;;15.79;85.45;100073.64;1749405;81;21230;-72
2021/08/26 05:14:38;;;;;;;6.23;3.03;;;;;;;15.79;85.53;100080.92;1758855;81;21070;-72
2021/08/26 05:17:05;;;;;;;3.83;2.97;;;;;;;15.75;85.67;100081.29;1758204;81;21972;-73
2021/08/26 05:19:32;;;;;;;4.07;2.77;;;;;;;15.75;85.69;100084.77;1754019;81;21022;-72
2021/08/26 05:21:59;;;;;;;3.77;2.80;;;;;;;15.73;85.71;100080.26;1744765;81;21101;-73
2021/08/26 05:24:26;;;;;;;4.97;3.00;;;;;;;15.68;85.72;100078.45;1748836;81;21038;-73
2021/08/26 05:26:53;;;;;;;4.10;3.03;;;;;;;15.67;85.86;100076.08;1752090;81;21053;-73
2021/08/26 05:29:20;;;;;;;4.20;2.80;;;;;;;15.67;86.03;100078.77;1746141;81;21560;-72
2021/08/26 05:31:46;;;;;;;4.57;3.10;;;;;;;15.71;86.29;100079.20;1743544;81;21022;-72
2021/08/26 05:34:13;;;;;;;4.13;3.40;;;;;;;15.75;86.44;100071.87;1749903;81;21593;-72
2021/08/26 05:36:40;;;;;;;4.00;3.20;;;;;;;15.79;86.51;100070.16;1749525;79;21030;-73
2021/08/26 05:39:07;;;;;;;5.50;2.70;;;;;;;15.82;86.55;100068.20;1752349;81;21117;-73
2021/08/26 05:41:33;;;;;;;4.40;2.70;;;;;;;15.85;86.60;100062.21;1750601;81;21827;-72
2021/08/26 05:44:00;;;;;;;3.80;3.00;;;;;;;15.79;86.59;100067.46;1746038;81;21129;-72
2021/08/26 05:46:27;;;;;;;3.93;3.10;;;;;;;15.70;86.92;100060.11;1752017;81;21073;-73
2021/08/26 05:48:54;;;;;;;3.70;2.60;;;;;;;15.71;87.24;100056.31;1756853;81;21014;-74
2021/08/26 05:51:21;;;;;;;4.60;2.80;;;;;;;15.70;87.28;100052.59;1755545;79;21022;-74
2021/08/26 05:53:47;;;;;;;5.87;2.97;;;;;;;15.67;87.25;100047.81;1741806;81;21304;-74
2021/08/26 05:56:13;;;;;;;3.90;3.00;;;;;;;15.65;86.99;100055.35;1755879;81;21085;-74
2021/08/26 05:58:41;;;;;;;3.73;2.50;;;;;;;15.60;87.05;100053.58;1754056;81;21518;-73
2021/08/26 06:01:07;;;;;;;4.00;2.77;;;;;;;15.60;87.14;100054.14;1748693;79;21051;-74
2021/08/26 06:03:34;;;;;;;4.03;2.50;;;;;;;15.54;87.14;100054.78;1753406;81;21026;-74
2021/08/26 06:06:00;;;;;;;4.30;2.93;;;;;;;15.52;87.32;100058.87;1754818;81;21869;-73
2021/08/26 06:08:29;;;;;;;3.93;2.90;;;;;;;15.45;87.41;100060.07;1758628;81;21045;-74
2021/08/26 06:10:57;;;;;;;4.13;2.80;;;;;;;15.45;87.64;100063.31;1752806;81;21073;-75
2021/08/26 06:13:24;;;;;;;4.20;2.87;;;;;;;15.48;87.86;100062.72;1752532;81;21619;-74
2021/08/26 06:15:51;;;;;;;3.67;2.60;;;;;;;15.54;87.92;100066.90;1753359;81;21549;-73
2021/08/26 06:18:18;;;;;;;3.40;2.30;;;;;;;15.60;87.92;100075.11;1759985;81;21091;-74
2021/08/26 06:20:45;;;;;;;2.87;2.00;;;;;;;15.65;87.82;100070.95;1751918;81;21067;-74
2021/08/26 06:23:11;;;;;;;3.33;2.40;;;;;;;15.70;87.54;100066.84;1737223;81;21592;-73
2021/08/26 06:25:38;;;;;;;2.70;2.10;;;;;;;15.74;87.20;100071.63;1750572;79;21105;-74
2021/08/26 06:28:05;;;;;;;2.97;2.27;;;;;;;15.73;86.82;100073.53;1754629;81;21629;-74
2021/08/26 06:30:32;;;;;;;3.47;2.30;;;;;;;15.75;86.70;100074.56;1741105;81;21513;-75
2021/08/26 06:32:58;;;;;;;3.47;2.20;;;;;;;15.72;86.55;100066.53;1767837;81;21026;-75
2021/08/26 06:35:24;;;;;;;3.43;2.37;;;;;;;15.69;86.48;100076.55;1754769;79;21162;-76
2021/08/26 06:37:51;;;;;;;3.47;2.40;;;;;;;15.69;86.55;100077.37;1753713;79;21046;-76
2021/08/26 06:40:18;;;;;;;3.57;2.43;;;;;;;15.71;86.74;100071.67;1764162;81;22211;-75
2021/08/26 06:42:45;;;;;;;3.67;2.60;;;;;;;15.75;86.92;100084.77;1740779;81;21774;-76
2021/08/26 06:45:12;;;;;;;4.63;2.80;;;;;;;15.78;87.06;100092.25;1745034;79;21261;-74
2021/08/26 06:47:38;;;;;;;3.87;2.70;;;;;;;15.84;87.26;100098.33;1756900;79;21120;-74
2021/08/26 06:50:07;;;;;;;4.97;3.00;;;;;;;15.88;87.41;100096.62;1744415;79;21445;-76
2021/08/26 06:52:34;;;;;;;4.47;3.20;;;;;;;15.91;87.35;100098.70;1738256;81;21085;-76
2021/08/26 06:55:01;;;;;;;3.70;2.90;;;;;;;15.95;87.28;100098.34;1754854;81;21532;-74
2021/08/26 06:57:29;;;;;;;3.80;2.80;;;;;;;16.02;87.48;100098.70;1752830;81;21029;-74
2021/08/26 06:59:56;;;;;;;3.47;2.83;;;;;;;16.08;87.43;100098.05;1761377;81;21543;-74
2021/08/26 07:02:23;;;;;;;3.90;3.20;;;;;;;16.11;87.35;100096.89;1756382;81;21034;-76
2021/08/26 07:04:50;;;;;;;3.80;2.93;;;;;;;16.14;87.46;100100.32;1758930;81;21017;-76
2021/08/26 07:07:16;;;;;;;4.13;2.93;;;;;;;16.15;87.54;100101.91;1756464;81;21192;-76
2021/08/26 07:09:44;;;;;;;4.37;3.00;;;;;;;16.17;87.55;100102.41;1743040;79;21077;-76
2021/08/26 07:12:10;;;;;;;5.37;2.90;;;;;;;16.18;87.62;100102.64;1749123;81;21070;-78
2021/08/26 07:14:38;;;;;;;4.23;2.73;;;;;;;16.21;87.61;100105.84;1761884;79;21073;-77
2021/08/26 07:17:06;;;;;;;4.83;3.63;;;;;;;16.22;87.54;100102.04;1753827;81;21054;-76
2021/08/26 07:19:32;;;;;;;5.00;3.47;;;;;;;16.21;87.31;100101.24;1758684;81;22213;-77
2021/08/26 07:21:59;;;;;;;4.17;2.87;;;;;;;16.22;87.16;100097.99;1754948;81;21050;-78
2021/08/26 07:24:26;;;;;;;5.23;2.70;;;;;;;16.23;86.81;100102.30;1744843;81;21119;-76
2021/08/26 07:26:53;;;;;;;4.13;2.50;;;;;;;16.22;86.74;100103.38;1758200;81;21758;-79
2021/08/26 07:29:20;;;;;;;5.43;3.07;;;;;;;16.24;86.56;100105.23;1755421;81;21498;-77
2021/08/26 07:31:47;;;;;;;4.50;2.87;;;;;;;16.26;86.30;100101.70;1749513;81;41843;-77
2021/08/26 07:34:14;;;;;;;4.10;2.80;;;;;;;16.30;86.15;100105.36;1752044;81;21078;-77
2021/08/26 07:36:41;;;;;;;4.30;2.97;;;;;;;16.36;85.97;100114.92;1750565;81;21120;-77
2021/08/26 07:39:12;;;;;;;5.03;3.30;;;;;;;16.38;86.07;100113.49;1742896;81;21037;-77
2021/08/26 07:41:40;;;;;;;4.85;3.35;;;;;;;16.45;86.19;100106.33;1755074;79;21155;-78
2021/08/26 07:44:07;;;;;;;4.63;3.20;;;;;;;16.47;85.87;100105.48;1752721;79;21144;-78
2021/08/26 07:46:33;;;;;;;4.20;2.77;;;;;;;16.43;85.52;100105.85;1752697;81;22233;-77
2021/08/26 07:49:00;;;;;;;3.73;3.00;;;;;;;16.35;85.55;100113.31;1754931;79;21018;-78
2021/08/26 07:51:26;;;;;;;4.73;3.10;;;;;;;16.30;85.72;100118.28;1753476;81;21081;-77
2021/08/26 07:53:56;;;;;;;4.43;2.90;;;;;;;16.25;85.70;100109.52;1757484;81;21592;-75
2021/08/26 07:56:24;;;;;;;3.97;3.10;;;;;;;16.19;85.41;100110.20;1754397;79;21159;-75
2021/08/26 07:58:50;;;;;;;6.00;3.23;;;;;;;16.16;85.74;100107.56;1759274;81;21581;-76
2021/08/26 08:01:17;;;;;;;5.27;3.43;;;;;;;16.24;85.98;100111.41;1755884;81;21081;-75
2021/08/26 08:03:46;;;;;;;4.47;3.40;;;;;;;16.37;85.86;100113.26;1764012;81;21025;-76
2021/08/26 08:06:16;;;;;;;3.90;2.83;;;;;;;16.48;85.70;100104.92;1753188;81;21074;-76
2021/08/26 08:08:45;;;;;;;4.10;3.17;;;;;;;16.61;85.60;100101.36;1758350;79;21041;-78
2021/08/26 08:11:15;;;;;;;4.50;2.97;;;;;;;16.70;85.27;100103.56;1756392;81;20936;-79
2021/08/26 08:13:43;;;;;;;4.73;3.00;;;;;;;16.78;85.17;100112.30;1757079;81;21109;-79
2021/08/26 08:16:11;;;;;;;5.17;3.37;;;;;;;16.84;84.89;100116.98;1758055;81;21049;-79
2021/08/26 08:18:38;;;;;;;4.17;3.30;;;;;;;16.91;84.78;100109.80;1754965;81;21113;-78
2021/08/26 08:21:06;;;;;;;4.03;3.10;;;;;;;16.99;84.88;100108.50;1720552;82;21161;-78
2021/08/26 08:23:33;;;;;;;3.50;2.83;;;;;;;17.07;84.57;100105.59;1757219;81;21011;-78
2021/08/26 08:26:03;;;;;;;4.20;3.10;;;;;;;17.08;83.86;100109.90;1742248;81;21089;-78
2021/08/26 08:28:30;;;;;;;3.63;2.60;;;;;;;17.09;83.57;100108.22;1755385;81;21029;-75
2021/08/26 08:30:57;;;;;;;4.13;2.80;;;;;;;17.17;83.42;100112.05;1753296;81;21074;-76
2021/08/26 08:33:24;;;;;;;4.33;3.00;;;;;;;17.29;83.17;100105.52;1757381;81;21192;-77
2021/08/26 08:35:52;;;;;;;4.10;3.10;;;;;;;17.36;82.62;100102.36;1748196;79;21517;-76
2021/08/26 08:38:19;;;;;;;3.23;2.50;;;;;;;17.36;81.90;100096.96;1754957;79;21624;-76
2021/08/26 08:40:46;;;;;;;4.17;3.03;;;;;;;17.38;81.57;100097.45;1749718;81;21239;-76
2021/08/26 08:43:14;;;;;;;4.03;2.73;;;;;;;17.33;81.26;100097.59;1760592;81;21096;-76
2021/08/26 08:45:45;;;;;;;4.23;3.00;;;;;;;17.31;81.56;100098.47;1755325;81;21130;-76
2021/08/26 08:48:12;;;;;;;4.00;3.20;;;;;;;17.28;81.64;100108.55;1747630;81;20966;-76
2021/08/26 08:50:41;;;;;;;4.30;2.87;;;;;;;17.28;81.78;100105.28;1748537;79;21101;-75
2021/08/26 08:53:14;;;;;;;4.33;3.23;;;;;;;17.25;81.46;100109.95;1740883;79;21092;-75
2021/08/26 08:55:42;;;;;;;4.40;3.50;;;;;;;17.10;81.07;100111.16;1751256;79;21067;-74
2021/08/26 08:58:10;;;;;;;4.60;3.40;;;;;;;16.98;81.28;100122.28;1755730;81;21182;-73
2021/08/26 09:00:37;;;;;;;5.83;3.30;;;;;;;16.99;81.99;100112.55;1745387;81;21375;-73
2021/08/26 09:03:03;;;;;;;3.90;3.10;;;;;;;17.07;82.31;100113.12;1753916;79;21527;-74
2021/08/26 09:05:57;;;;;;;4.83;3.50;;;;;;;17.20;82.15;100105.24;1749585;81;21121;-73
2021/08/26 09:08:28;;;;;;;4.63;3.97;;;;;;;17.26;81.83;100108.84;1747042;79;21026;-74
2021/08/26 09:11:14;;;;;;;4.50;3.47;;;;;;;17.33;81.71;100106.48;1741842;81;21149;-73
2021/08/26 09:13:43;;;;;;;4.70;4.07;;;;;;;17.41;81.50;100106.28;1734391;82;21129;-75
2021/08/26 09:16:10;;;;;;;6.33;5.17;;;;;;;17.46;81.18;100105.33;1750695;81;21446;-74
2021/08/26 09:18:37;;;;;;;6.23;5.40;;;;;;;17.47;80.79;100105.56;1743996;79;21774;-74
2021/08/26 09:21:07;;;;;;;6.27;5.50;;;;;;;17.39;80.54;100103.09;1748013;79;22155;-73
2021/08/26 09:23:37;;;;;;;6.53;5.80;;;;;;;17.30;80.70;100107.10;1755455;79;21098;-73
2021/08/26 09:26:25;;;;;;;6.43;5.33;;;;;;;17.17;81.14;100107.22;1751764;79;21045;-74
2021/08/26 09:28:53;;;;;;;6.17;5.27;;;;;;;17.17;81.70;100099.12;1745520;81;21025;-75
2021/08/26 09:31:24;;;;;;;7.73;4.80;;;;;;;17.22;81.77;100102.48;1762624;81;21089;-73
2021/08/26 09:34:05;;;;;;;6.92;5.12;;;;;;;17.20;81.42;100105.24;1760284;81;21089;-75
2021/08/26 09:36:40;;;;;;;7.80;5.45;;;;;;;17.09;81.56;100103.38;1755831;81;22286;-74
2021/08/26 09:39:13;;;;;;;7.33;5.70;;;;;;;17.11;81.66;100106.58;1735395;81;21078;-74
2021/08/26 09:41:48;;;;;;;7.03;5.63;;;;;;;17.11;81.83;100100.63;1757951;81;21018;-74
2021/08/26 09:44:33;;;;;;;6.97;6.07;;;;;;;17.15;81.83;100102.70;1758014;81;21051;-76
2021/08/26 09:47:05;;;;;;;7.30;5.97;;;;;;;17.07;81.76;100103.68;1748826;81;21062;-76
2021/08/26 09:49:41;;;;;;;5.67;4.90;;;;;;;17.03;82.25;100103.27;1758588;81;21110;-76
2021/08/26 09:52:14;;;;;;;6.67;5.37;;;;;;;17.06;82.54;100108.84;1740375;81;21026;-75
2021/08/26 09:54:49;;;;;;;5.97;5.07;;;;;;;17.11;82.29;100103.33;1757669;81;21028;-76
2021/08/26 09:57:30;;;;;;;7.10;5.40;;;;;;;17.08;82.49;100094.50;1754935;81;21098;-75
2021/08/26 10:00:01;;;;;;;6.83;5.00;;;;;;;17.11;82.95;100087.13;1751126;81;21102;-76
2021/08/26 10:02:30;;;;;;;5.30;4.70;;;;;;;17.12;82.57;100090.63;1752152;81;21534;-75
2021/08/26 10:04:57;;;;;;;6.53;5.40;;;;;;;17.10;82.89;100089.56;1754497;81;21094;-75
2021/08/26 10:07:27;;;;;;;8.60;5.40;;;;;;;17.10;82.66;100090.12;1763399;81;21073;-76
2021/08/26 10:09:54;;;;;;;7.57;6.10;;;;;;;17.15;82.57;100090.56;1746502;81;21585;-76
2021/08/26 10:12:20;;;;;;;5.97;5.37;;;;;;;17.21;82.60;100087.94;1740214;81;21021;-74
2021/08/26 10:14:51;;;;;;;6.43;5.33;;;;;;;17.31;82.65;100089.81;1758582;80;21929;-75
2021/08/26 10:17:18;;;;;;;6.30;5.70;;;;;;;17.41;82.62;100091.44;1772634;80;21551;-75
2021/08/26 10:19:45;;;;;;;6.27;5.50;;;;;;;17.50;81.91;100086.83;1758056;79;21129;-74
2021/08/26 10:22:13;;;;;;;6.43;5.67;;;;;;;17.51;81.49;100090.34;1754893;81;21054;-74
2021/08/26 10:24:40;;;;;;;7.13;6.43;;;;;;;17.55;81.65;100086.69;1760832;79;21309;-79
2021/08/26 10:27:13;;;;;;;6.93;6.23;;;;;;;17.62;81.88;100085.44;1752812;79;21128;-77
2021/08/26 10:29:50;;;;;;;7.27;6.57;;;;;;;17.69;81.33;100076.30;1754329;79;21507;-75
2021/08/26 10:32:20;;;;;;;6.83;6.23;;;;;;;17.68;80.53;100069.32;1756221;81;21132;-76
2021/08/26 10:35:11;;;;;;;7.93;7.10;;;;;;;17.68;80.25;100076.08;1757251;79;21096;-77
2021/08/26 10:37:53;;;;;;;6.83;6.13;;;;;;;17.72;80.47;100072.97;1760220;81;21678;-77
2021/08/26 10:40:34;;;;;;;7.60;6.83;;;;;;;17.74;79.43;100066.71;1749767;79;21783;-76
2021/08/26 10:43:03;;;;;;;6.80;6.17;;;;;;;17.66;78.81;100072.88;1766055;81;21387;-75
2021/08/26 10:45:51;;;;;;;6.50;5.90;;;;;;;17.63;78.81;100072.95;1754000;79;21063;-78
2021/08/26 10:48:22;;;;;;;6.93;6.33;;;;;;;17.62;78.19;100073.28;1749786;79;21552;-77
2021/08/26 10:51:20;;;;;;;7.27;6.57;;;;;;;17.51;77.61;100072.23;1759317;81;21564;-75
2021/08/26 10:53:41;;;;;;;7.50;6.80;;;;;;;17.42;78.18;100074.11;1756181;81;21137;-75
2021/08/26 10:56:21;;;;;;;6.93;6.33;;;;;;;17.39;78.81;100074.73;1754050;81;21078;-75
2021/08/26 10:58:54;;;;;;;7.90;7.10;;;;;;;17.38;78.77;100077.77;1755222;81;21068;-75
2021/08/26 11:01:35;;;;;;;9.07;7.87;;;;;;;17.41;79.28;100077.94;1743868;79;21037;-75
2021/08/26 11:04:20;;;;;;;8.43;7.63;;;;;;;17.51;79.73;100073.59;1763642;80;21074;-75
2021/08/26 11:06:47;;;;;;;8.70;7.80;;;;;;;17.66;80.12;100086.39;1755827;81;22515;-75
2021/08/26 11:09:22;;;;;;;9.17;8.23;;;;;;;17.73;79.73;100079.39;1750919;81;21049;-76
2021/08/26 11:11:57;;;;;;;7.30;6.60;;;;;;;17.88;79.79;100070.64;1752914;81;21072;-76
2021/08/26 11:14:24;;;;;;;7.60;6.90;;;;;;;18.18;79.45;100059.41;1749526;81;21062;-77
2021/08/26 11:16:56;;;;;;;7.30;6.60;;;;;;;18.49;78.29;100055.95;1754035;79;21549;-76
2021/08/26 11:19:34;;;;;;;7.62;6.83;;;;;;;18.78;76.82;100054.44;1753382;79;26581;-75
2021/08/26 11:22:12;;;;;;;7.93;7.20;;;;;;;19.02;75.92;100062.54;1749153;81;21101;-75
2021/08/26 11:24:42;;;;;;;6.67;6.00;;;;;;;19.13;75.33;100065.13;1755110;81;21631;-74
2021/08/26 11:27:26;;;;;;;6.40;5.80;;;;;;;19.18;74.05;100071.16;1757518;79;21085;-75
2021/08/26 11:29:53;;;;;;;6.73;6.10;;;;;;;19.20;73.14;100068.91;1755016;79;21061;-76
2021/08/26 11:32:21;;;;;;;6.47;5.87;;;;;;;19.18;72.32;100067.64;1753154;81;21298;-76
2021/08/26 11:34:50;;;;;;;6.57;5.93;;;;;;;19.11;72.09;100061.95;1740801;81;21065;-76